createdAt,value
2024-01-24T00:02:22.850Z,3.97
2024-01-24T00:07:27.429Z,3.67
2024-01-24T00:12:29.631Z,4.75
2024-01-24T00:17:36.571Z,4.00
2024-01-24T00:22:43.531Z,3.80
2024-01-24T00:27:46.374Z,5.95
2024-01-24T00:32:48.749Z,3.65
2024-01-24T00:37:50.593Z,3.92
2024-01-24T00:42:54.983Z,3.90
2024-01-24T00:47:56.862Z,3.97
2024-01-24T00:53:10.059Z,4.47
2024-01-24T00:58:12.165Z,2.25
2024-01-24T01:03:16.729Z,2.47
2024-01-24T01:08:18.903Z,3.08
2024-01-24T01:13:20.933Z,4.20
2024-01-24T01:18:22.946Z,3.55
2024-01-24T01:23:27.527Z,4.10
2024-01-24T01:28:31.839Z,2.55
2024-01-24T01:33:36.342Z,3.03
2024-01-24T01:38:38.500Z,3.75
2024-01-24T01:43:40.501Z,2.83
2024-01-24T01:48:44.801Z,5.60
2024-01-24T01:53:48.993Z,5.13
2024-01-24T01:58:51.518Z,4.53
2024-01-24T02:03:56.179Z,3.03
2024-01-24T02:08:58.392Z,3.15
2024-01-24T02:14:02.959Z,3.67
2024-01-24T02:19:06.382Z,2.50
2024-01-24T02:24:10.570Z,2.50
2024-01-24T02:29:13.335Z,1.75
2024-01-24T02:34:15.191Z,2.83
2024-01-24T02:39:19.926Z,2.95
2024-01-24T02:44:21.896Z,2.63
2024-01-24T02:49:26.222Z,3.67
2024-01-24T02:54:28.147Z,3.50
2024-01-24T02:59:33.133Z,4.05
2024-01-24T03:04:35.143Z,3.72
2024-01-24T03:09:37.300Z,2.08
2024-01-24T03:14:39.165Z,2.30
2024-01-24T03:19:41.165Z,3.17
2024-01-24T03:24:45.672Z,2.10
2024-01-24T03:29:50.410Z,3.13
2024-01-24T03:34:56.494Z,3.45
2024-01-24T03:39:58.530Z,2.45
2024-01-24T03:45:02.688Z,2.92
2024-01-24T03:50:07.386Z,1.70
2024-01-24T03:55:09.433Z,1.88
2024-01-24T04:00:12.776Z,2.00
2024-01-24T04:05:16.045Z,1.98
2024-01-24T04:10:18.366Z,3.22
2024-01-24T04:15:20.568Z,2.78
2024-01-24T04:20:22.727Z,3.05
2024-01-24T04:25:24.542Z,1.35
2024-01-24T04:30:26.516Z,3.25
2024-01-24T04:35:30.840Z,1.80
2024-01-24T04:40:33.153Z,3.10
2024-01-24T04:45:35.296Z,3.40
2024-01-24T04:50:39.546Z,3.08
2024-01-24T04:55:44.093Z,3.78
2024-01-24T05:00:46.087Z,3.33
2024-01-24T05:05:50.033Z,4.35
2024-01-24T05:10:56.325Z,4.85
2024-01-24T05:16:00.795Z,2.85
2024-01-24T05:21:03.882Z,3.33
2024-01-24T05:26:05.774Z,3.72
2024-01-24T05:31:07.964Z,4.10
2024-01-24T05:36:11.625Z,3.58
2024-01-24T05:41:13.633Z,2.70
2024-01-24T05:46:15.626Z,3.45
2024-01-24T05:51:20.369Z,3.47
2024-01-24T05:56:22.274Z,3.10
2024-01-24T06:01:24.251Z,3.42
2024-01-24T06:06:26.570Z,2.80
2024-01-24T06:11:28.687Z,2.75
2024-01-24T06:16:31.734Z,3.60
2024-01-24T06:21:34.189Z,4.25
2024-01-24T06:26:37.291Z,2.42
2024-01-24T06:31:39.770Z,3.40
2024-01-24T06:36:42.517Z,4.93
2024-01-24T06:41:46.034Z,2.83
2024-01-24T06:46:48.699Z,2.05
2024-01-24T06:51:52.066Z,3.50
2024-01-24T06:56:58.029Z,2.97
2024-01-24T07:02:04.849Z,3.40
2024-01-24T07:07:07.148Z,4.35
2024-01-24T07:12:09.429Z,3.33
2024-01-24T07:17:11.539Z,4.25
2024-01-24T07:22:13.630Z,4.05
2024-01-24T07:27:17.731Z,3.00
2024-01-24T07:32:19.586Z,3.25
2024-01-24T07:37:24.040Z,3.03
2024-01-24T07:42:28.581Z,2.90
2024-01-24T07:47:31.257Z,3.00
2024-01-24T07:52:40.916Z,2.22
2024-01-24T07:57:44.783Z,2.90
2024-01-24T08:02:51.494Z,2.63
2024-01-24T08:07:53.930Z,3.38
2024-01-24T08:12:56.167Z,2.55
2024-01-24T08:17:58.157Z,3.00
2024-01-24T08:23:00.213Z,2.25
2024-01-24T08:28:05.388Z,2.22
2024-01-24T08:33:07.538Z,2.25
2024-01-24T08:38:11.146Z,2.92
2024-01-24T08:43:13.078Z,3.40
2024-01-24T08:48:19.878Z,3.70
2024-01-24T08:53:21.929Z,2.38
2024-01-24T08:58:23.951Z,4.38
2024-01-24T09:03:28.924Z,2.25
2024-01-24T09:08:31.003Z,2.28
2024-01-24T09:13:33.012Z,3.83
2024-01-24T09:18:35.383Z,3.20
2024-01-24T09:23:37.604Z,3.30
2024-01-24T09:28:42.236Z,4.25
2024-01-24T09:33:44.227Z,4.78
2024-01-24T09:38:47.017Z,5.47
2024-01-24T09:43:52.301Z,2.92
2024-01-24T09:48:54.394Z,4.10
2024-01-24T09:54:02.606Z,4.35
2024-01-24T09:59:06.274Z,3.75
2024-01-24T10:04:09.097Z,4.68
2024-01-24T10:09:11.132Z,4.75
2024-01-24T10:14:14.049Z,4.18
2024-01-24T10:19:16.389Z,4.93
2024-01-24T10:24:18.739Z,3.50
2024-01-24T10:29:22.807Z,2.92
2024-01-24T10:34:28.264Z,5.85
2024-01-24T10:39:34.795Z,4.88
2024-01-24T10:44:37.277Z,3.22
2024-01-24T10:49:40.972Z,3.30
2024-01-24T10:54:44.495Z,3.08
2024-01-24T10:59:52.201Z,2.47
2024-01-24T11:04:55.232Z,2.85
2024-01-24T11:10:21.995Z,1.58
2024-01-24T11:15:24.360Z,1.08
2024-01-24T11:20:26.968Z,1.05
2024-01-24T11:25:38.802Z,1.63
2024-01-24T11:30:41.311Z,2.45
2024-01-24T11:35:46.759Z,2.85
2024-01-24T11:41:01.942Z,2.55
2024-01-24T11:46:06.418Z,2.40
2024-01-24T11:51:10.603Z,2.80
2024-01-24T11:56:16.391Z,2.65
2024-01-24T12:01:20.994Z,1.45
2024-01-24T12:06:23.230Z,2.42
2024-01-24T12:11:25.641Z,1.35
2024-01-24T12:16:29.584Z,0.70
2024-01-24T12:21:37.308Z,0.70
2024-01-24T12:26:42.045Z,1.35
2024-01-24T12:31:47.075Z,1.75
2024-01-24T12:36:49.373Z,1.70
2024-01-24T12:41:51.349Z,1.77
2024-01-24T12:47:00.145Z,3.15
2024-01-24T12:52:04.314Z,2.10
2024-01-24T12:57:06.426Z,3.78
2024-01-24T13:02:11.075Z,3.05
2024-01-24T13:07:14.395Z,1.77
2024-01-24T13:12:19.221Z,2.50
2024-01-24T13:17:22.317Z,2.25
2024-01-24T13:22:24.194Z,2.22
2024-01-24T13:27:26.089Z,1.65
2024-01-24T13:32:28.102Z,2.58
2024-01-24T13:37:30.069Z,2.15
2024-01-24T13:42:32.048Z,1.75
2024-01-24T13:47:34.127Z,1.90
2024-01-24T13:52:36.167Z,2.42
2024-01-24T13:57:40.753Z,2.17
2024-01-24T14:02:45.303Z,3.22
2024-01-24T14:07:47.473Z,2.35
2024-01-24T14:12:49.620Z,1.45
2024-01-24T14:17:52.152Z,1.77
2024-01-24T14:22:54.092Z,1.65
2024-01-24T14:27:57.132Z,1.30
2024-01-24T14:32:59.119Z,2.42
2024-01-24T14:38:01.249Z,2.17
2024-01-24T14:43:05.797Z,2.88
2024-01-24T14:48:11.145Z,1.55
2024-01-24T14:53:13.076Z,1.90
2024-01-24T14:58:14.978Z,2.33
2024-01-24T15:03:17.040Z,3.15
2024-01-24T15:08:22.703Z,1.95
2024-01-24T15:13:28.366Z,2.53
2024-01-24T15:18:30.623Z,1.73
2024-01-24T15:23:32.601Z,1.92
2024-01-24T15:28:35.991Z,2.03
2024-01-24T15:33:42.823Z,3.13
2024-01-24T15:38:52.156Z,3.15
2024-01-24T15:48:58.939Z,3.33
2024-01-24T15:54:01.075Z,4.95
2024-01-24T15:59:02.957Z,2.70
2024-01-24T16:04:04.991Z,2.85
2024-01-24T16:09:09.969Z,4.72
2024-01-24T16:14:12.081Z,4.75
2024-01-24T16:19:14.161Z,5.82
2024-01-24T16:24:19.321Z,5.35
2024-01-24T16:29:21.140Z,8.00
2024-01-24T16:34:23.133Z,4.90
2024-01-24T16:39:25.245Z,5.72
2024-01-24T16:44:27.694Z,4.53
2024-01-24T16:49:29.763Z,4.20
2024-01-24T16:54:32.247Z,19.95
2024-01-24T16:59:37.060Z,17.92
2024-01-24T17:04:39.957Z,46.28
2024-01-24T17:09:42.560Z,23.15
2024-01-24T17:14:44.755Z,27.45
2024-01-24T17:19:46.663Z,34.03
2024-01-24T17:24:48.790Z,11.80
2024-01-24T17:29:51.138Z,17.80
2024-01-24T17:34:52.984Z,20.05
2024-01-24T17:39:55.159Z,7.45
2024-01-24T17:44:57.627Z,9.18
2024-01-24T17:49:59.837Z,7.65
2024-01-24T17:55:02.075Z,7.55
2024-01-24T18:00:07.438Z,6.80
2024-01-24T18:05:09.545Z,6.68
2024-01-24T18:10:12.361Z,8.13
2024-01-24T18:15:14.234Z,10.73
2024-01-24T18:20:16.103Z,9.90
2024-01-24T18:25:18.128Z,12.15
2024-01-24T18:30:22.517Z,10.27
2024-01-24T18:35:24.587Z,5.57
2024-01-24T18:40:28.810Z,5.95
2024-01-24T18:45:30.678Z,5.43
2024-01-24T18:50:35.073Z,4.88
2024-01-24T18:55:39.597Z,4.95
2024-01-24T19:00:44.414Z,3.70
2024-01-24T19:05:47.144Z,2.88
2024-01-24T19:10:51.371Z,4.47
2024-01-24T19:15:56.719Z,5.25
2024-01-24T19:21:03.374Z,2.72
2024-01-24T19:26:05.513Z,3.72
2024-01-24T19:31:07.479Z,3.20
2024-01-24T19:36:11.174Z,3.88
2024-01-24T19:41:15.377Z,3.17
2024-01-24T19:46:17.477Z,3.17
2024-01-24T19:51:19.826Z,5.78
2024-01-24T19:56:22.058Z,3.03
2024-01-24T20:01:25.362Z,2.20
2024-01-24T20:06:27.455Z,2.35
2024-01-24T20:11:29.466Z,4.05
2024-01-24T20:16:33.587Z,12.35
2024-01-24T20:21:41.816Z,4.80
2024-01-24T20:26:43.831Z,2.28
2024-01-24T20:31:46.251Z,1.63
2024-01-24T20:36:48.078Z,2.83
2024-01-24T20:41:50.574Z,3.15
2024-01-24T20:46:53.954Z,1.65
2024-01-24T20:51:55.881Z,11.52
2024-01-24T20:56:57.948Z,4.35
2024-01-24T21:02:02.347Z,4.45
2024-01-24T21:07:07.637Z,5.35
2024-01-24T21:12:12.538Z,3.88
2024-01-24T21:17:14.690Z,2.08
2024-01-24T21:22:18.155Z,2.15
2024-01-24T21:27:20.284Z,2.97
2024-01-24T21:32:27.150Z,1.38
2024-01-24T21:37:29.102Z,2.78
2024-01-24T21:42:30.963Z,2.55
2024-01-24T21:47:32.883Z,3.78
2024-01-24T21:52:37.100Z,3.40
2024-01-24T21:57:43.543Z,5.40
2024-01-24T22:02:47.917Z,3.42
2024-01-24T22:07:51.442Z,3.67
2024-01-24T22:12:53.544Z,2.42
2024-01-24T22:17:58.225Z,3.90
2024-01-24T22:23:00.223Z,3.67
2024-01-24T22:28:02.246Z,4.85
2024-01-24T22:33:04.399Z,2.10
2024-01-24T22:38:06.326Z,3.15
2024-01-24T22:43:08.240Z,2.10
2024-01-24T22:48:10.282Z,2.45
2024-01-24T22:53:12.060Z,1.73
2024-01-24T22:58:14.053Z,2.78
2024-01-24T23:03:16.200Z,3.65
2024-01-24T23:08:18.473Z,2.88
2024-01-24T23:13:22.881Z,3.22
2024-01-24T23:18:27.089Z,3.15
2024-01-24T23:23:29.016Z,3.53
2024-01-24T23:28:33.417Z,2.97
2024-01-24T23:33:37.901Z,2.25
2024-01-24T23:38:39.807Z,2.67
2024-01-24T23:43:41.837Z,3.08
2024-01-24T23:48:46.500Z,3.67
2024-01-24T23:53:48.875Z,2.35
2024-01-24T23:58:51.296Z,3.08
